KJZP

Details ICAO KJZP (JZP)
Name PICKENS CO
Region United States
Timezone America/New_York (UTC-4.0)
Plans Departing 1
Arriving 0
Stats Elevation 1,535 ft / 468 m (AMSL)
Location 34.453373° -84.457367°
Runways 1
Magnetic Variation 5.224° W
Sunrise 2018-05-27 10:29:48 UTC / 2018-05-27 06:29:48 Local
Sunset 2018-05-28 00:43:06 UTC / 2018-05-27 20:43:06 Local
Advertisement - Login to hide

Runways

ID Width Length Bearing (true) Bearing (mag) Surface Threshold Offset Overrun Length
16 100 ft / 30 m 5,011 ft / 1,527 m 159.45° 164.67° Asphalt 0 ft / 0 m 0 ft / 0 m
34 100 ft / 30 m 5,011 ft / 1,527 m 339.46° 344.68° Asphalt 0 ft / 0 m 0 ft / 0 m

Map

Weather


0- 5 10 15 20 25 30 35+ Temperature / ° C

Clouds and Precipitation
Forecast for 2018-05-28 00:00 UTC. Updated 40 minutes ago

Ground ~20,000 ft ~40,000 ft Winds

METAR

KJZP 272355Z AUTO 13008KT 10SM SCT055 24/19 A2997 RMK AO2 6//// T02350188 10276 20235 PNO

TAF

Not found

Frequencies

Unicom 122.80 MHz CTAF/UNICOM
Warning: Do not use this data for real-world aviation or navigation. No guarantee of current accuracy is given.